KBGE/BGE METAR and TAF weather

Enter ICAO airport designator
Station Type Date Time Source
KBGE METAR 2018/01/22 19:15 UTC NOAA

KBGE 221915Z AUTO 17009G15KT 150V210 BKN023 BKN030 22/18 A3001 RMK AO2


Station Type Date Time Source
KBGE Decoded METAR 2018/01/22 19:15 UTC NOAA

Bainbridge, Decatur County Industrial Air Park Airport, GA, United States (KBGE) 30-58N 084-38W
Jan 22, 2018 - 02:15 PM EST / 2018.01.22 1915 UTC
Wind: from the S (170 degrees) at 10 MPH (9 KT) gusting to 17 MPH (15 KT) (direction variable):0
Sky conditions: mostly cloudy
Temperature: 71 F (22 C)
Dew Point: 64 F (18 C)
Relative Humidity: 78%
Pressure (altimeter): 30.01 in. Hg (1016 hPa)
ob: KBGE 221915Z AUTO 17009G15KT 150V210 BKN023 BKN030 22/18 A3001 RMK AO2
cycle: 19

Station Type Date Time Source
KBGE TAF UTC NOAA

Error!


Example: see airport list